Time;durP1;ratioP1;P1;durP2;ratioP2;P2;SDS_P1;SDS_P2;PMS_P1;PMS_P2;Temp;Humidity;BMP_temperature;BMP_pressure;BME280_temperature;BME280_humidity;BME280_pressure;Samples;Min_cycle;Max_cycle;Signal;HPM_P1;HPM_P2
2022/01/06 00:01:48;;;;;;;;;16.33;16.33;;;;;7.01;59.26;101501.22;4997368;28;45549;-70
2022/01/06 00:04:13;;;;;;;;;15.67;13.00;;;;;7.08;59.57;101495.53;4978626;28;47561;-70
2022/01/06 00:06:41;;;;;;;;;24.00;16.67;;;;;7.17;59.57;101508.09;5005783;28;46095;-70
2022/01/06 00:09:09;;;;;;;;;16.67;13.00;;;;;7.14;59.31;101505.69;5013806;28;45358;-69
2022/01/06 00:11:35;;;;;;;;;17.67;14.33;;;;;7.04;59.37;101489.59;5015932;28;45582;-69
2022/01/06 00:17:01;;;;;;;;;17.67;16.67;;;;;7.10;59.47;101498.91;5005615;28;45539;-74
2022/01/06 00:24:54;;;;;;;;;20.67;17.00;;;;;7.15;59.70;101502.94;5035732;28;45302;-69
2022/01/06 00:27:20;;;;;;;;;20.00;15.67;;;;;7.05;59.29;101488.66;5034131;28;45493;-68
2022/01/06 00:29:45;;;;;;;;;14.67;13.00;;;;;7.12;59.48;101503.13;5035787;28;45329;-71
2022/01/06 00:32:10;;;;;;;;;21.33;17.33;;;;;6.96;59.34;101492.72;5033671;28;45734;-71
2022/01/06 00:34:36;;;;;;;;;17.67;16.67;;;;;6.96;59.38;101500.66;5034434;28;45420;-70
2022/01/06 00:37:02;;;;;;;;;19.67;16.67;;;;;6.87;59.85;101492.50;5037858;28;45586;-71
2022/01/06 00:39:28;;;;;;;;;16.33;15.33;;;;;6.97;60.37;101515.56;5035737;28;45483;-70
2022/01/06 00:41:56;;;;;;;;;18.33;17.00;;;;;6.94;60.21;101505.22;5020350;28;45323;-69
2022/01/06 00:44:23;;;;;;;;;21.67;16.00;;;;;7.01;59.89;101522.38;5018510;28;45859;-70
2022/01/06 00:46:49;;;;;;;;;15.67;15.00;;;;;6.60;60.09;101461.66;5018596;28;45294;-69
2022/01/06 00:49:14;;;;;;;;;18.00;14.00;;;;;6.92;59.84;101522.97;5008075;28;45545;-70
2022/01/06 00:51:39;;;;;;;;;15.00;14.00;;;;;6.91;60.14;101526.56;5006288;28;45508;-70
2022/01/06 00:54:05;;;;;;;;;17.00;15.00;;;;;6.76;60.54;101514.34;5027696;28;45629;-70
2022/01/06 00:56:30;;;;;;;;;18.67;17.00;;;;;6.69;60.12;101492.78;5021849;28;45492;-70
2022/01/06 00:58:55;;;;;;;;;15.33;13.67;;;;;6.66;61.04;101500.06;5024316;28;45448;-71
2022/01/06 01:01:21;;;;;;;;;16.67;14.33;;;;;6.75;60.75;101530.31;5016994;28;45469;-69
2022/01/06 01:03:46;;;;;;;;;15.33;12.00;;;;;6.60;60.78;101521.56;5033492;28;45652;-70
2022/01/06 01:06:12;;;;;;;;;18.33;17.00;;;;;6.68;61.51;101537.81;5036487;28;45363;-70
2022/01/06 01:08:38;;;;;;;;;23.00;18.67;;;;;6.49;60.79;101501.16;5022873;28;45223;-70
2022/01/06 01:11:04;;;;;;;;;19.00;16.67;;;;;6.56;61.14;101525.38;5018993;28;45390;-70
2022/01/06 01:13:31;;;;;;;;;18.33;18.33;;;;;6.62;60.85;101530.28;5032937;28;45422;-70
2022/01/06 01:16:08;;;;;;;;;25.00;21.33;;;;;6.64;61.02;101521.31;5036992;28;45417;-70
2022/01/06 01:18:33;;;;;;;;;17.67;16.00;;;;;6.56;61.22;101506.88;5004652;28;45422;-70
2022/01/06 01:20:59;;;;;;;;;19.00;16.00;;;;;6.52;61.04;101514.16;5012748;28;45615;-71
2022/01/06 01:23:24;;;;;;;;;14.00;12.00;;;;;6.46;61.03;101504.00;5009022;28;46751;-71
2022/01/06 01:25:50;;;;;;;;;12.67;12.67;;;;;6.63;60.92;101521.41;4989975;28;45731;-70
2022/01/06 01:28:16;;;;;;;;;11.67;11.67;;;;;6.67;60.87;101528.19;4999101;28;45425;-71
2022/01/06 01:33:25;;;;;;;;;18.67;12.00;;;;;6.48;61.35;101488.06;5018085;28;45290;-68
2022/01/06 01:35:51;;;;;;;;;13.67;12.33;;;;;6.71;60.74;101529.66;5017741;28;45315;-69
2022/01/06 01:38:16;;;;;;;;;16.33;15.00;;;;;6.59;60.37;101511.97;5016293;28;45636;-70
2022/01/06 01:40:42;;;;;;;;;14.33;13.33;;;;;6.73;61.13;101543.63;4980788;28;45462;-70
2022/01/06 01:43:07;;;;;;;;;18.67;14.33;;;;;6.76;60.69;101537.28;5008862;28;45602;-70
2022/01/06 01:45:34;;;;;;;;;13.00;12.00;;;;;6.62;60.94;101535.56;5018375;28;45275;-70
2022/01/06 01:48:05;;;;;;;;;19.00;17.33;;;;;6.67;60.71;101536.09;5009942;28;45432;-70
2022/01/06 01:50:31;;;;;;;;;15.67;15.33;;;;;6.74;60.72;101547.13;4998753;28;45495;-69
2022/01/06 01:52:57;;;;;;;;;20.00;15.67;;;;;6.51;61.06;101511.63;5011072;28;45954;-69
2022/01/06 01:55:29;;;;;;;;;17.33;15.00;;;;;6.46;60.79;101511.06;5015406;28;45492;-69
2022/01/06 01:57:56;;;;;;;;;16.33;13.00;;;;;6.61;60.61;101547.09;5009389;28;45444;-69
2022/01/06 02:00:28;;;;;;;;;19.67;18.00;;;;;6.42;61.17;101523.63;4998984;28;45541;-69
2022/01/06 02:02:53;;;;;;;;;17.33;17.33;;;;;6.63;60.99;101561.03;5017445;28;45705;-68
2022/01/06 02:05:26;;;;;;;;;17.67;17.67;;;;;6.61;60.57;101563.78;5013360;28;45630;-68
2022/01/06 02:07:53;;;;;;;;;22.67;19.00;;;;;6.55;60.50;101560.66;4986683;28;45509;-70
2022/01/06 02:10:20;;;;;;;;;18.00;15.67;;;;;6.53;61.41;101558.13;5017859;28;45492;-69
2022/01/06 02:12:48;;;;;;;;;15.67;15.67;;;;;6.57;61.13;101561.41;5017496;28;46445;-69
2022/01/06 02:15:14;;;;;;;;;17.00;13.67;;;;;6.55;60.70;101556.22;5013893;28;45352;-70
2022/01/06 02:17:40;;;;;;;;;16.00;14.67;;;;;6.45;60.69;101536.66;4997393;28;45425;-69
2022/01/06 02:20:17;;;;;;;;;16.67;15.00;;;;;6.65;60.93;101561.78;4997996;28;45534;-70
2022/01/06 02:22:43;;;;;;;;;14.33;11.00;;;;;6.64;60.41;101562.72;4999341;28;47613;-69
2022/01/06 02:25:15;;;;;;;;;16.67;14.33;;;;;6.63;60.86;101561.03;4996659;28;45392;-70
2022/01/06 02:27:42;;;;;;;;;15.00;15.00;;;;;6.61;60.94;101555.84;4997685;28;45330;-70
2022/01/06 02:30:09;;;;;;;;;20.33;14.67;;;;;6.59;60.95;101546.31;4996369;28;45281;-69
2022/01/06 02:32:35;;;;;;;;;15.67;14.00;;;;;6.56;61.22;101551.78;4997239;28;46919;-70
2022/01/06 02:35:08;;;;;;;;;16.33;15.67;;;;;6.61;60.59;101565.56;4998445;28;45239;-70
2022/01/06 02:37:34;;;;;;;;;17.00;15.33;;;;;6.60;60.68;101559.41;4990941;28;45585;-69
2022/01/06 02:40:00;;;;;;;;;18.33;16.33;;;;;6.50;61.10;101544.28;5013666;28;45448;-70
2022/01/06 02:42:26;;;;;;;;;18.33;14.33;;;;;6.51;61.24;101559.16;5006400;28;46331;-69
2022/01/06 02:44:52;;;;;;;;;15.67;15.00;;;;;6.54;61.30;101569.53;5015540;28;45352;-71
2022/01/06 02:47:17;;;;;;;;;19.67;14.00;;;;;6.55;61.04;101561.50;5008636;28;45521;-70
2022/01/06 02:49:42;;;;;;;;;18.00;17.00;;;;;6.56;61.35;101557.06;4997478;28;45583;-70
2022/01/06 02:52:08;;;;;;;;;16.00;14.00;;;;;6.52;61.33;101555.59;5002658;28;45778;-69
2022/01/06 02:54:34;;;;;;;;;16.00;14.67;;;;;6.34;60.90;101542.59;4996483;28;45497;-70
2022/01/06 02:56:59;;;;;;;;;16.00;16.00;;;;;6.48;61.56;101564.66;4997012;28;45236;-70
2022/01/06 02:59:24;;;;;;;;;14.67;12.33;;;;;6.49;61.25;101566.34;4991458;28;45267;-69
2022/01/06 03:01:50;;;;;;;;;13.00;13.00;;;;;6.26;61.46;101539.59;4979472;28;48497;-70
2022/01/06 03:04:15;;;;;;;;;18.67;16.00;;;;;6.33;61.15;101553.25;4996765;28;45379;-70
2022/01/06 03:06:41;;;;;;;;;22.67;16.00;;;;;6.39;61.49;101576.63;4997227;28;45246;-70
2022/01/06 03:09:11;;;;;;;;;13.00;12.00;;;;;6.40;61.04;101583.59;4997295;28;45473;-70
2022/01/06 03:11:41;;;;;;;;;18.00;15.67;;;;;6.39;61.87;101587.19;5015366;28;46185;-70
2022/01/06 03:14:07;;;;;;;;;14.33;13.00;;;;;6.41;61.84;101582.69;4987311;28;45465;-68
2022/01/06 03:16:32;;;;;;;;;19.33;14.00;;;;;6.30;61.21;101562.22;4996985;28;45298;-69
2022/01/06 03:18:58;;;;;;;;;15.33;13.00;;;;;6.46;61.59;101585.03;5007946;28;45580;-70
2022/01/06 03:21:23;;;;;;;;;18.33;17.33;;;;;6.40;60.71;101576.53;4998735;28;46997;-70
2022/01/06 03:23:48;;;;;;;;;14.33;10.67;;;;;6.49;61.61;101593.59;5014997;28;45398;-70
2022/01/06 03:26:14;;;;;;;;;17.33;14.67;;;;;6.58;61.64;101600.09;5015966;28;45396;-69
2022/01/06 03:28:39;;;;;;;;;15.67;13.67;;;;;6.46;60.68;101572.69;5009408;28;45322;-69
2022/01/06 03:31:05;;;;;;;;;15.67;13.67;;;;;6.61;61.46;101594.63;4995454;28;46650;-71
2022/01/06 03:33:30;;;;;;;;;12.00;10.67;;;;;6.60;60.70;101601.69;5003242;28;45506;-70
2022/01/06 03:35:56;;;;;;;;;13.33;13.00;;;;;6.56;60.65;101599.34;4990789;28;45508;-70
2022/01/06 03:38:21;;;;;;;;;13.67;10.67;;;;;6.61;60.79;101597.28;5004551;28;45490;-69
2022/01/06 03:40:46;;;;;;;;;13.00;12.00;;;;;6.24;60.52;101536.22;4978598;28;48081;-68
2022/01/06 03:43:12;;;;;;;;;16.00;14.33;;;;;6.65;60.57;101609.34;4984137;28;45263;-69
2022/01/06 03:45:37;;;;;;;;;16.00;13.33;;;;;6.37;60.87;101562.69;5016535;28;45365;-70
2022/01/06 03:48:06;;;;;;;;;11.67;9.33;;;;;6.49;60.85;101582.19;5003234;28;45439;-69
2022/01/06 03:50:31;;;;;;;;;21.00;16.00;;;;;6.53;61.04;101602.19;4999083;28;46209;-69
2022/01/06 03:52:57;;;;;;;;;17.67;12.67;;;;;6.54;61.13;101595.97;5010790;28;46526;-70
2022/01/06 03:55:22;;;;;;;;;17.67;16.00;;;;;6.39;60.56;101576.63;4997518;28;45402;-69
2022/01/06 03:57:48;;;;;;;;;15.00;12.67;;;;;6.11;60.65;101535.28;5016423;28;45810;-69
2022/01/06 04:00:16;;;;;;;;;15.00;13.67;;;;;6.38;61.20;101589.00;5015627;28;46896;-70
2022/01/06 04:02:43;;;;;;;;;14.67;12.67;;;;;6.46;60.88;101614.09;4996954;28;45405;-70
2022/01/06 04:05:09;;;;;;;;;12.33;12.33;;;;;6.43;60.90;101615.13;4996332;28;45343;-71
2022/01/06 04:07:36;;;;;;;;;11.00;11.00;;;;;6.31;60.85;101595.59;5001961;28;45272;-71
2022/01/06 04:10:01;;;;;;;;;14.67;12.00;;;;;6.02;60.53;101535.88;5017714;28;47076;-72
2022/01/06 04:12:27;;;;;;;;;17.00;13.00;;;;;6.52;60.67;101611.06;5019436;28;45478;-69
2022/01/06 04:14:52;;;;;;;;;20.33;15.67;;;;;5.86;60.42;101498.13;5018927;28;45616;-69
2022/01/06 04:17:18;;;;;;;;;16.67;13.67;;;;;5.84;60.95;101497.38;5022635;28;45476;-71
2022/01/06 04:19:43;;;;;;;;;15.67;12.33;;;;;6.47;60.95;101605.22;5039060;28;46466;-69
2022/01/06 04:22:08;;;;;;;;;19.00;17.00;;;;;6.56;60.92;101604.63;5021444;28;45985;-71
2022/01/06 04:24:34;;;;;;;;;13.33;12.00;;;;;6.17;60.65;101534.88;5039146;28;45408;-70
2022/01/06 04:27:00;;;;;;;;;13.67;13.67;;;;;6.61;61.28;101610.50;5037643;28;45459;-70
2022/01/06 04:29:26;;;;;;;;;14.67;13.00;;;;;6.52;60.71;101592.56;5020395;28;46499;-69
2022/01/06 04:31:51;;;;;;;;;20.00;17.00;;;;;5.44;60.41;101418.91;5039079;28;45299;-71
2022/01/06 04:34:17;;;;;;;;;16.00;14.33;;;;;6.49;60.68;101587.47;5037776;28;45661;-70
2022/01/06 04:36:48;;;;;;;;;15.67;11.00;;;;;6.39;60.23;101566.06;5039012;28;45214;-70
2022/01/06 04:39:13;;;;;;;;;13.00;13.00;;;;;6.69;60.21;101605.56;5037426;28;47764;-71
2022/01/06 04:41:39;;;;;;;;;11.67;10.33;;;;;6.68;60.08;101614.44;5038945;28;45466;-71
2022/01/06 04:44:04;;;;;;;;;13.00;12.67;;;;;6.69;60.86;101616.13;5027890;28;45320;-71
2022/01/06 04:46:30;;;;;;;;;11.67;11.67;;;;;6.69;60.35;101616.97;5001231;28;45307;-71
2022/01/06 04:48:55;;;;;;;;;13.33;11.33;;;;;6.62;60.45;101605.09;5031561;28;46552;-68
2022/01/06 04:51:20;;;;;;;;;13.67;12.00;;;;;6.40;60.73;101575.69;5011106;28;45728;-71
2022/01/06 04:53:46;;;;;;;;;15.00;11.00;;;;;6.51;60.52;101606.72;5008696;28;45307;-69
2022/01/06 04:56:11;;;;;;;;;15.33;12.00;;;;;6.43;60.34;101598.44;5034888;28;45500;-70
2022/01/06 04:58:37;;;;;;;;;13.33;10.33;;;;;6.45;60.50;101596.56;5018700;28;45627;-71
2022/01/06 05:01:02;;;;;;;;;12.33;11.33;;;;;6.41;61.23;101624.94;5001716;28;45559;-70
2022/01/06 05:03:27;;;;;;;;;14.67;14.33;;;;;6.27;61.05;101604.69;5012526;28;45555;-70
2022/01/06 05:05:53;;;;;;;;;15.33;11.67;;;;;6.33;60.76;101603.44;5018951;28;45523;-70
2022/01/06 05:08:18;;;;;;;;;16.67;15.00;;;;;6.40;60.66;101623.22;5018628;28;46822;-70
2022/01/06 05:10:43;;;;;;;;;10.33;9.67;;;;;6.43;60.72;101630.13;5018593;28;45554;-71
2022/01/06 05:13:09;;;;;;;;;9.00;9.00;;;;;6.40;60.32;101621.44;5019645;28;45388;-70
2022/01/06 05:15:34;;;;;;;;;16.67;12.67;;;;;6.35;61.24;101628.81;5018707;28;45269;-70
2022/01/06 05:18:00;;;;;;;;;14.33;13.00;;;;;6.36;60.96;101638.41;5008658;28;45829;-71
2022/01/06 05:20:26;;;;;;;;;13.00;13.00;;;;;6.35;60.86;101639.38;5007518;28;45484;-70
2022/01/06 05:22:55;;;;;;;;;15.67;15.67;;;;;6.36;61.38;101643.69;5018225;28;45558;-70
2022/01/06 05:25:25;;;;;;;;;17.00;14.33;;;;;6.32;61.19;101634.28;5001463;28;45487;-70
2022/01/06 05:27:51;;;;;;;;;17.33;14.33;;;;;6.32;61.27;101639.56;4998202;28;46632;-71
2022/01/06 05:30:16;;;;;;;;;11.67;10.00;;;;;6.28;61.04;101638.06;5002499;28;45465;-69
2022/01/06 05:32:41;;;;;;;;;11.00;11.00;;;;;6.23;61.26;101626.09;5016422;28;45484;-71
2022/01/06 05:35:07;;;;;;;;;12.00;12.00;;;;;6.23;61.35;101632.22;5017050;28;45543;-72
2022/01/06 05:37:33;;;;;;;;;18.33;16.67;;;;;6.27;61.16;101649.56;5004580;28;46891;-71
2022/01/06 05:39:58;;;;;;;;;13.33;9.00;;;;;6.19;60.94;101633.31;4999124;28;45430;-72
2022/01/06 05:42:23;;;;;;;;;14.00;12.33;;;;;6.18;61.38;101636.91;4980796;28;45412;-71
2022/01/06 05:44:49;;;;;;;;;13.33;12.33;;;;;6.01;61.38;101610.72;4998419;28;45416;-69
2022/01/06 05:47:14;;;;;;;;;11.00;11.00;;;;;5.95;61.49;101596.09;4988851;28;47532;-70
2022/01/06 05:49:39;;;;;;;;;11.00;11.00;;;;;6.21;61.53;101652.59;4980052;28;45494;-70
2022/01/06 05:52:05;;;;;;;;;17.33;15.00;;;;;5.78;61.80;101583.88;4982844;28;45517;-70
2022/01/06 05:54:31;;;;;;;;;17.67;13.00;;;;;6.24;61.56;101656.84;4996655;28;45326;-70
2022/01/06 05:56:56;;;;;;;;;12.67;12.00;;;;;6.22;61.83;101659.56;5007416;28;46463;-71
2022/01/06 05:59:22;;;;;;;;;14.33;13.67;;;;;6.14;61.30;101640.69;5017719;28;45592;-70
2022/01/06 06:01:47;;;;;;;;;14.67;12.67;;;;;6.21;61.78;101652.59;5017453;28;45801;-71
2022/01/06 06:04:13;;;;;;;;;17.00;13.00;;;;;6.14;61.93;101656.53;4997844;28;45356;-71
2022/01/06 06:06:38;;;;;;;;;14.67;14.67;;;;;6.21;61.88;101659.66;4997368;28;46537;-70
2022/01/06 06:09:04;;;;;;;;;18.33;16.00;;;;;6.22;62.39;101671.94;5016189;28;45273;-71
2022/01/06 06:11:29;;;;;;;;;19.00;15.33;;;;;6.22;61.90;101670.13;5017091;28;45548;-70
2022/01/06 06:13:55;;;;;;;;;17.33;14.00;;;;;6.25;61.14;101674.38;5017626;28;45385;-73
2022/01/06 06:16:20;;;;;;;;;11.67;11.33;;;;;6.06;61.51;101650.88;5002432;28;46719;-70
2022/01/06 06:18:46;;;;;;;;;16.00;16.00;;;;;6.27;61.79;101683.91;5016483;28;45468;-70
2022/01/06 06:21:11;;;;;;;;;22.33;15.67;;;;;6.03;61.76;101632.59;5017430;28;45215;-70
2022/01/06 06:23:36;;;;;;;;;18.00;18.00;;;;;6.24;61.50;101672.69;5016130;28;45439;-71
2022/01/06 06:26:03;;;;;;;;;18.67;17.33;;;;;6.35;61.60;101694.81;4981384;28;46187;-70
2022/01/06 06:28:28;;;;;;;;;16.33;13.33;;;;;6.24;62.36;101677.97;5010821;28;45531;-71
2022/01/06 06:30:54;;;;;;;;;15.00;13.33;;;;;6.34;61.24;101689.66;5017459;28;45406;-70
2022/01/06 06:33:19;;;;;;;;;15.67;13.67;;;;;6.40;62.06;101689.25;5018147;28;45521;-70
2022/01/06 06:35:45;;;;;;;;;16.67;13.00;;;;;6.42;60.91;101697.97;5004239;28;45478;-70
2022/01/06 06:38:10;;;;;;;;;18.33;15.00;;;;;6.46;61.60;101701.25;4997403;28;45457;-70
2022/01/06 06:40:35;;;;;;;;;11.00;11.00;;;;;6.39;61.98;101698.97;4979392;28;45295;-69
2022/01/06 06:43:01;;;;;;;;;18.00;15.67;;;;;6.46;61.40;101709.19;4997356;28;45500;-70
2022/01/06 06:45:26;;;;;;;;;16.00;14.33;;;;;6.34;61.77;101692.28;5008765;28;46005;-70
2022/01/06 06:47:52;;;;;;;;;16.00;15.00;;;;;6.20;61.04;101658.78;5012201;28;45488;-70
2022/01/06 06:50:18;;;;;;;;;22.33;14.67;;;;;6.55;61.22;101708.59;5016301;28;45397;-71
2022/01/06 06:52:44;;;;;;;;;17.67;14.33;;;;;6.56;61.18;101707.66;4997545;28;45601;-71
2022/01/06 06:55:12;;;;;;;;;16.00;16.00;;;;;6.53;61.64;101702.56;5010367;28;46580;-71
2022/01/06 06:57:38;;;;;;;;;15.00;15.00;;;;;6.56;61.63;101695.31;5001197;28;45572;-70
2022/01/06 07:00:05;;;;;;;;;15.00;11.67;;;;;6.67;61.00;101702.56;4997001;28;45298;-69
2022/01/06 07:02:31;;;;;;;;;18.00;14.00;;;;;6.65;61.73;101699.19;4996952;28;45311;-70
2022/01/06 07:04:57;;;;;;;;;16.67;12.67;;;;;6.71;60.88;101710.22;4994821;28;47734;-69
2022/01/06 07:07:22;;;;;;;;;11.67;10.33;;;;;6.71;61.01;101706.72;4996575;28;45239;-73
2022/01/06 07:09:48;;;;;;;;;11.33;11.00;;;;;6.78;61.20;101715.94;4996977;28;45254;-71
2022/01/06 07:12:13;;;;;;;;;13.33;13.00;;;;;6.83;61.03;101713.91;4999929;28;45465;-70
2022/01/06 07:14:39;;;;;;;;;18.00;15.33;;;;;6.70;60.83;101692.66;5016214;28;46198;-70
2022/01/06 07:17:04;;;;;;;;;16.00;14.00;;;;;6.86;60.66;101711.06;5013811;28;45539;-71
2022/01/06 07:19:29;;;;;;;;;14.67;13.00;;;;;6.87;60.49;101710.09;4996495;28;45321;-71
2022/01/06 07:21:55;;;;;;;;;19.00;14.00;;;;;6.93;60.49;101714.16;4996994;28;45427;-70
2022/01/06 07:24:20;;;;;;;;;17.00;13.67;;;;;6.90;60.48;101701.97;5006449;28;46823;-70
2022/01/06 07:26:46;;;;;;;;;20.00;12.00;;;;;6.98;60.12;101717.34;5016496;28;45322;-71
2022/01/06 07:29:11;;;;;;;;;17.33;16.00;;;;;7.03;60.26;101717.06;4998358;28;45277;-71
2022/01/06 07:31:37;;;;;;;;;17.33;16.00;;;;;7.06;60.65;101720.38;5016430;28;45370;-71
2022/01/06 07:34:02;;;;;;;;;21.33;16.33;;;;;6.99;60.82;101709.31;4999410;28;45497;-69
2022/01/06 07:36:27;;;;;;;;;18.67;15.33;;;;;7.09;60.44;101719.31;4996234;28;45326;-69
2022/01/06 07:38:53;;;;;;;;;18.33;16.33;;;;;7.06;60.42;101722.16;4978735;28;45718;-70
2022/01/06 07:41:18;;;;;;;;;18.33;16.67;;;;;7.03;59.99;101709.16;5000224;28;45480;-69
2022/01/06 07:43:44;;;;;;;;;18.00;14.33;;;;;7.13;60.14;101726.09;5007396;28;46264;-71
2022/01/06 07:46:11;;;;;;;;;16.67;16.33;;;;;7.04;59.59;101703.75;5013196;28;45127;-72
2022/01/06 07:48:56;;;;;;;;;23.67;21.00;;;;;7.03;59.86;101699.41;4999268;28;45298;-73
2022/01/06 07:51:23;;;;;;;;;20.00;19.00;;;;;6.81;59.38;101662.94;4999905;28;45389;-74
2022/01/06 07:53:48;;;;;;;;;16.33;16.00;;;;;7.21;59.20;101739.72;5003366;28;47007;-75
2022/01/06 07:56:14;;;;;;;;;17.33;15.00;;;;;7.24;59.49;101744.81;5013040;28;45428;-71
2022/01/06 07:58:39;;;;;;;;;17.67;14.67;;;;;7.24;59.36;101739.50;4999677;28;45295;-73
2022/01/06 08:01:04;;;;;;;;;14.33;13.33;;;;;7.26;59.55;101745.53;5018416;28;45195;-71
2022/01/06 08:03:30;;;;;;;;;18.67;16.00;;;;;7.29;59.24;101745.34;5019285;28;46363;-71
2022/01/06 08:05:55;;;;;;;;;21.00;17.00;;;;;7.16;59.43;101721.47;5018980;28;45174;-71
2022/01/06 08:08:20;;;;;;;;;18.33;14.00;;;;;7.06;58.63;101699.22;5016468;28;45358;-71
2022/01/06 08:10:46;;;;;;;;;19.00;18.00;;;;;7.33;59.25;101745.03;5007697;28;45496;-73
2022/01/06 08:13:11;;;;;;;;;15.33;14.33;;;;;7.00;59.36;101684.56;5023135;28;46403;-73
2022/01/06 08:15:37;;;;;;;;;23.67;18.33;;;;;7.25;58.93;101725.34;5018498;28;45358;-73
2022/01/06 08:18:02;;;;;;;;;11.33;10.33;;;;;7.17;59.48;101709.94;5015000;28;45579;-72
2022/01/06 08:20:28;;;;;;;;;23.00;19.00;;;;;7.32;58.87;101748.63;5006751;28;45560;-70
2022/01/06 08:22:53;;;;;;;;;19.67;15.00;;;;;7.29;59.18;101737.41;5011222;28;46386;-69
2022/01/06 08:25:19;;;;;;;;;19.33;18.33;;;;;6.95;58.54;101676.09;5014313;28;45500;-70
2022/01/06 08:27:44;;;;;;;;;18.67;18.67;;;;;7.23;58.83;101716.66;5015923;28;45365;-70
2022/01/06 08:30:10;;;;;;;;;20.00;14.67;;;;;7.41;59.03;101747.22;5012065;28;45291;-69
2022/01/06 08:32:36;;;;;;;;;14.00;12.00;;;;;7.33;59.00;101733.63;5000075;28;46573;-70
2022/01/06 08:35:26;;;;;;;;;15.67;14.00;;;;;7.41;58.79;101738.41;5000707;28;45232;-71
2022/01/06 08:37:52;;;;;;;;;15.00;13.67;;;;;7.50;58.34;101757.19;5012230;28;45263;-70
2022/01/06 08:40:17;;;;;;;;;18.33;18.00;;;;;7.50;58.82;101751.91;5010096;28;45453;-70
2022/01/06 08:42:45;;;;;;;;;20.00;16.00;;;;;6.67;58.93;101602.16;5007266;28;46739;-72
2022/01/06 08:45:11;;;;;;;;;20.67;17.33;;;;;7.61;58.59;101753.84;5016724;28;45499;-75
2022/01/06 08:47:36;;;;;;;;;24.00;19.67;;;;;7.58;58.67;101764.63;5012318;28;45337;-71
2022/01/06 08:50:03;;;;;;;;;18.33;17.67;;;;;7.58;58.51;101759.31;4997892;28;45461;-71
2022/01/06 08:52:33;;;;;;;;;17.00;17.00;;;;;7.51;58.64;101745.66;4997865;28;46211;-71
2022/01/06 08:54:58;;;;;;;;;22.67;21.00;;;;;7.56;58.53;101756.78;5010923;28;45493;-68
2022/01/06 08:57:24;;;;;;;;;21.33;19.33;;;;;7.50;58.15;101736.03;5009930;28;45575;-70
2022/01/06 08:59:49;;;;;;;;;24.00;22.67;;;;;7.49;57.91;101733.47;5016481;28;45441;-68
2022/01/06 09:02:14;;;;;;;;;19.33;19.00;;;;;7.75;57.90;101766.16;5034593;28;45605;-71
2022/01/06 09:04:40;;;;;;;;;22.67;21.33;;;;;7.69;57.81;101754.19;5038300;28;45409;-72
2022/01/06 09:07:05;;;;;;;;;18.67;16.67;;;;;6.78;57.95;101599.66;5022420;28;45543;-72
2022/01/06 09:09:30;;;;;;;;;21.00;21.00;;;;;7.80;58.05;101761.41;5018777;28;45596;-69
2022/01/06 09:12:06;;;;;;;;;15.00;15.00;;;;;7.82;57.58;101772.78;5018744;28;46013;-74
2022/01/06 09:14:32;;;;;;;;;23.00;21.67;;;;;7.76;57.80;101759.91;5018405;28;45419;-70
2022/01/06 09:16:57;;;;;;;;;18.33;16.33;;;;;7.82;57.39;101762.19;5018233;28;45395;-72
2022/01/06 09:19:23;;;;;;;;;22.33;19.33;;;;;7.82;57.63;101770.13;5022952;28;45187;-77
2022/01/06 09:21:48;;;;;;;;;18.67;17.67;;;;;7.67;57.62;101737.56;5021988;28;46666;-75
2022/01/06 09:24:14;;;;;;;;;19.33;17.33;;;;;7.72;57.46;101751.34;5014810;28;45279;-73
2022/01/06 09:26:39;;;;;;;;;25.67;24.00;;;;;7.89;56.97;101782.00;5019747;28;45370;-75
2022/01/06 09:29:07;;;;;;;;;23.33;17.00;;;;;7.87;56.96;101768.03;5018642;28;45250;-74
2022/01/06 09:31:36;;;;;;;;;16.33;14.33;;;;;7.84;57.87;101753.19;5018420;28;45635;-75
2022/01/06 09:34:08;;;;;;;;;15.00;13.67;;;;;8.04;57.04;101778.34;5018103;28;45226;-72
2022/01/06 09:39:26;;;;;;;;;17.00;17.00;;;;;7.93;56.68;101739.31;4983841;28;45599;-78
2022/01/06 09:41:51;;;;;;;;;16.67;16.00;;;;;8.28;56.22;101780.28;4982744;28;46992;-72
2022/01/06 09:44:18;;;;;;;;;20.33;16.33;;;;;8.35;56.21;101781.59;5007563;28;45366;-71
2022/01/06 09:46:44;;;;;;;;;17.67;16.00;;;;;8.47;56.12;101791.38;5014588;28;45432;-72
2022/01/06 09:49:20;;;;;;;;;;;;;;;;;;;;;
2022/01/06 09:51:49;;;;;;;;;15.67;12.00;;;;;8.56;55.85;101790.72;5011121;28;73487;-72
2022/01/06 09:54:15;;;;;;;;;12.00;12.00;;;;;8.60;55.10;101794.84;5007854;28;45619;-74
2022/01/06 09:56:47;;;;;;;;;17.33;15.67;;;;;8.64;54.96;101798.16;5015785;28;45628;-72
2022/01/06 09:59:12;;;;;;;;;13.00;9.67;;;;;8.46;54.96;101764.03;5000903;28;45231;-69
2022/01/06 10:01:41;;;;;;;;;18.33;13.67;;;;;8.53;54.30;101775.03;4997852;28;46054;-72
2022/01/06 10:04:28;;;;;;;;;16.00;14.33;;;;;8.70;54.97;101803.88;4979556;28;45987;-72
2022/01/06 10:07:26;;;;;;;;;13.67;11.67;;;;;8.77;54.53;101799.84;4987423;28;45500;-69
2022/01/06 10:09:51;;;;;;;;;18.33;14.00;;;;;8.77;55.17;101789.25;5002520;28;45382;-82
2022/01/06 10:12:26;;;;;;;;;15.33;13.00;;;;;8.82;54.54;101789.78;4980334;28;45449;-74
2022/01/06 10:14:51;;;;;;;;;17.67;15.00;;;;;8.96;54.61;101799.41;4985018;28;45445;-75
2022/01/06 10:17:29;;;;;;;;;15.33;14.67;;;;;9.00;54.02;101805.34;4999438;28;45479;-76
2022/01/06 10:19:55;;;;;;;;;12.67;12.67;;;;;8.94;53.66;101796.03;5016031;28;45501;-72
2022/01/06 10:22:22;;;;;;;;;15.00;15.00;;;;;8.98;54.05;101796.66;5018408;28;45504;-81
2022/01/06 10:24:50;;;;;;;;;17.00;13.00;;;;;9.04;53.78;101802.38;5011106;28;46069;-78
2022/01/06 10:27:19;;;;;;;;;18.00;16.00;;;;;8.30;53.83;101673.25;5000510;28;45608;-76
2022/01/06 10:29:54;;;;;;;;;12.67;12.67;;;;;9.08;54.17;101792.41;5001676;28;45753;-75
2022/01/06 10:32:23;;;;;;;;;20.67;15.67;;;;;9.13;53.59;101795.56;5013708;28;46544;-79
2022/01/06 10:34:56;;;;;;;;;15.00;12.67;;;;;8.80;53.33;101738.63;5007407;28;45553;-70
2022/01/06 10:37:43;;;;;;;;;15.00;9.67;;;;;9.21;52.91;101797.66;5005584;28;45665;-72
2022/01/06 10:40:22;;;;;;;;;9.67;9.67;;;;;9.20;53.17;101801.28;5012569;28;45483;-74
2022/01/06 10:42:57;;;;;;;;;12.00;11.67;;;;;9.18;53.25;101798.75;5016035;28;46591;-71
2022/01/06 10:45:29;;;;;;;;;16.67;14.00;;;;;9.01;52.81;101764.59;5014658;28;46353;-75
2022/01/06 10:48:03;;;;;;;;;13.00;13.00;;;;;9.30;53.35;101800.53;4987347;28;45405;-72
2022/01/06 10:50:36;;;;;;;;;12.00;8.00;;;;;9.22;52.54;101779.00;5018667;28;45492;-71
2022/01/06 10:53:37;;;;;;;;;15.67;13.67;;;;;9.29;52.80;101774.09;5007602;28;47242;-71
2022/01/06 10:56:01;;;;;;;;;14.33;14.00;;;;;9.38;52.52;101784.03;5001056;28;45504;-73
2022/01/06 10:58:27;;;;;;;;;9.33;8.67;;;;;9.27;52.56;101771.56;4985847;28;45482;-73
2022/01/06 11:01:00;;;;;;;;;15.67;12.33;;;;;9.38;52.86;101782.22;4996609;28;45232;-71
2022/01/06 11:03:36;;;;;;;;;12.00;8.33;;;;;9.35;52.61;101766.53;5006586;28;45927;-71
2022/01/06 11:06:11;;;;;;;;;11.33;11.00;;;;;9.33;52.18;101781.72;4997936;28;45303;-71
2022/01/06 11:08:41;;;;;;;;;11.67;10.67;;;;;9.24;52.35;101739.09;4996474;28;45306;-70
2022/01/06 11:13:36;;;;;;;;;13.33;10.00;;;;;9.33;51.75;101767.59;5005145;28;46333;-70
2022/01/06 11:16:04;;;;;;;;;18.00;14.00;;;;;9.25;52.03;101759.38;5001612;28;45475;-71
2022/01/06 11:18:31;;;;;;;;;13.33;12.00;;;;;9.21;52.00;101758.75;5007977;28;45576;-71
2022/01/06 11:21:18;;;;;;;;;13.33;13.00;;;;;9.03;52.86;101730.88;4998824;28;45555;-70
2022/01/06 11:23:44;;;;;;;;;9.00;7.33;;;;;8.97;53.32;101732.16;5008841;28;45631;-69
2022/01/06 11:26:17;;;;;;;;;16.67;12.33;;;;;9.12;53.52;101762.03;5015908;28;45266;-73
2022/01/06 11:28:53;;;;;;;;;13.00;11.67;;;;;9.02;52.92;101753.06;4982270;28;45422;-71
2022/01/06 11:31:24;;;;;;;;;13.67;8.67;;;;;8.95;53.20;101754.44;5010978;28;45504;-70
2022/01/06 11:33:52;;;;;;;;;10.33;9.00;;;;;8.81;53.01;101732.41;5002492;28;45869;-72
2022/01/06 11:36:25;;;;;;;;;6.67;5.67;;;;;8.90;52.62;101761.88;5002104;28;45576;-72